createdAt,value
2018-11-10T00:01:13.248Z,100136.18
2018-11-10T00:03:46.703Z,100137.44
2018-11-10T00:06:19.640Z,100131.97
2018-11-10T00:08:52.651Z,100126.38
2018-11-10T00:11:27.467Z,100118.64
2018-11-10T00:14:00.520Z,100114.48
2018-11-10T00:16:33.956Z,100111.67
2018-11-10T00:19:06.866Z,100108.63
2018-11-10T00:21:40.157Z,100102.41
2018-11-10T00:24:13.742Z,100102.61
2018-11-10T00:26:46.546Z,100104.39
2018-11-10T00:29:18.901Z,100099.27
2018-11-10T00:31:51.250Z,100097.13
2018-11-10T00:34:24.455Z,100089.85
2018-11-10T00:36:56.890Z,100088.23
2018-11-10T00:39:29.759Z,100093.98
2018-11-10T00:42:02.668Z,100083.27
2018-11-10T00:44:35.518Z,100076.12
2018-11-10T00:47:09.066Z,100079.62
2018-11-10T00:49:41.621Z,100080.92
2018-11-10T00:52:15.607Z,100085.09
2018-11-10T00:54:48.641Z,100075.53
2018-11-10T00:57:21.278Z,100083.56
2018-11-10T00:59:54.441Z,100076.48
2018-11-10T01:02:27.487Z,100075.53
2018-11-10T01:05:00.032Z,100077.34
2018-11-10T01:07:33.009Z,100067.59
2018-11-10T01:10:05.277Z,100074.09
2018-11-10T01:12:37.620Z,100063.14
2018-11-10T01:15:13.839Z,100061.43
2018-11-10T01:17:46.638Z,100055.67
2018-11-10T01:20:20.679Z,100050.38
2018-11-10T01:22:53.162Z,100043.20
2018-11-10T01:25:26.002Z,100042.80
2018-11-10T01:27:58.389Z,100034.31
2018-11-10T01:30:31.208Z,100030.39
2018-11-10T01:33:03.409Z,100030.69
2018-11-10T01:35:49.560Z,100023.28
2018-11-10T01:38:24.084Z,100013.95
2018-11-10T01:40:57.204Z,100013.95
2018-11-10T01:43:30.839Z,100004.88
2018-11-10T01:46:03.513Z,100004.97
2018-11-10T01:48:36.210Z,100004.71
2018-11-10T01:51:09.519Z,99992.41
2018-11-10T01:53:41.998Z,100002.33
2018-11-10T01:56:15.178Z,99995.25
2018-11-10T01:58:48.987Z,99988.63
2018-11-10T02:01:21.456Z,99993.30
2018-11-10T02:03:54.455Z,99990.48
2018-11-10T02:06:27.654Z,99985.36
2018-11-10T02:09:01.144Z,99983.11
2018-11-10T02:11:34.197Z,99975.53
2018-11-10T02:14:06.901Z,99969.59
2018-11-10T02:16:39.555Z,99960.52
2018-11-10T02:19:11.987Z,99956.76
2018-11-10T02:21:44.321Z,99954.21
2018-11-10T02:24:16.982Z,99947.18
2018-11-10T02:26:50.705Z,99953.44
2018-11-10T02:29:23.850Z,99948.34
2018-11-10T02:31:56.579Z,99949.20
2018-11-10T02:34:28.737Z,99947.31
2018-11-10T02:37:02.020Z,99938.05
2018-11-10T02:39:39.119Z,99928.18
2018-11-10T02:42:24.581Z,99923.43
2018-11-10T02:45:14.219Z,99924.03
2018-11-10T02:48:03.108Z,99913.05
2018-11-10T02:50:38.970Z,99905.80
2018-11-10T02:53:11.160Z,99910.48
2018-11-10T02:55:43.425Z,99909.41
2018-11-10T02:58:16.393Z,99903.16
2018-11-10T03:00:49.070Z,99904.19
2018-11-10T03:03:22.625Z,99900.47
2018-11-10T03:05:55.188Z,99901.22
2018-11-10T03:08:28.307Z,99906.09
2018-11-10T03:11:00.647Z,99901.11
2018-11-10T03:13:33.516Z,99892.09
2018-11-10T03:16:06.149Z,99894.06
2018-11-10T03:18:38.788Z,99897.93
2018-11-10T03:21:11.222Z,99889.98
2018-11-10T03:23:43.473Z,99890.62
2018-11-10T03:26:16.548Z,99886.91
2018-11-10T03:28:50.112Z,99878.28
2018-11-10T03:31:23.274Z,99879.73
2018-11-10T03:33:57.207Z,99876.19
2018-11-10T03:36:29.876Z,99870.91
2018-11-10T03:39:02.032Z,99853.12
2018-11-10T03:41:34.684Z,99848.52
2018-11-10T03:44:07.995Z,99856.41
2018-11-10T03:46:40.037Z,99843.70
2018-11-10T03:49:12.563Z,99832.86
2018-11-10T03:51:45.187Z,99842.84
2018-11-10T03:54:17.326Z,99844.58
2018-11-10T03:56:50.456Z,99842.38
2018-11-10T03:59:20.428Z,99832.41
2018-11-10T04:01:49.775Z,99840.02
2018-11-10T04:04:19.080Z,99833.19
2018-11-10T04:06:48.354Z,99826.21
2018-11-10T04:09:17.815Z,99824.66
2018-11-10T04:11:47.665Z,99822.59
2018-11-10T04:14:17.035Z,99820.14
2018-11-10T04:16:46.388Z,99814.84
2018-11-10T04:19:15.840Z,99799.92
2018-11-10T04:21:45.210Z,99807.30
2018-11-10T04:24:14.466Z,99801.98
2018-11-10T04:26:44.285Z,99789.70
2018-11-10T04:29:13.600Z,99776.92
2018-11-10T04:31:44.372Z,99771.51
2018-11-10T04:34:13.883Z,99771.05
2018-11-10T04:36:43.463Z,99769.37
2018-11-10T04:39:12.787Z,99783.41
2018-11-10T04:41:44.946Z,99776.27
2018-11-10T04:44:14.589Z,99780.09
2018-11-10T04:46:44.923Z,99779.27
2018-11-10T04:49:14.524Z,99781.80
2018-11-10T04:51:44.096Z,99774.08
2018-11-10T04:54:13.757Z,99773.34
2018-11-10T04:56:44.031Z,99779.27
2018-11-10T04:59:13.271Z,99789.18
2018-11-10T05:01:42.762Z,99785.90
2018-11-10T05:04:12.097Z,99790.69
2018-11-10T05:06:41.477Z,99782.08
2018-11-10T05:09:11.857Z,99789.30
2018-11-10T05:11:41.779Z,99782.42
2018-11-10T05:14:11.177Z,99788.55
2018-11-10T05:16:40.581Z,99786.99
2018-11-10T05:19:10.451Z,99787.81
2018-11-10T05:21:40.207Z,99794.94
2018-11-10T05:24:09.897Z,99791.90
2018-11-10T05:26:39.317Z,99794.08
2018-11-10T05:29:09.044Z,99796.17
2018-11-10T05:31:38.481Z,99794.53
2018-11-10T05:34:08.373Z,99803.04
2018-11-10T05:36:38.269Z,99786.72
2018-11-10T05:39:09.057Z,99782.16
2018-11-10T05:41:38.407Z,99787.05
2018-11-10T05:44:07.783Z,99784.41
2018-11-10T05:46:37.143Z,99792.37
2018-11-10T05:49:06.831Z,99790.84
2018-11-10T05:51:36.535Z,99786.99
2018-11-10T05:54:06.903Z,99792.75
2018-11-10T05:56:36.561Z,99786.28
2018-11-10T05:59:06.361Z,99789.14
2018-11-10T06:01:36.589Z,99800.71
2018-11-10T06:04:05.993Z,99790.91
2018-11-10T06:06:35.425Z,99796.78
2018-11-10T06:09:06.674Z,99789.66
2018-11-10T06:11:36.171Z,99789.48
2018-11-10T06:14:06.530Z,99783.43
2018-11-10T06:16:36.078Z,99780.64
2018-11-10T06:19:06.004Z,99791.58
2018-11-10T06:21:35.378Z,99785.72
2018-11-10T06:24:06.478Z,99792.95
2018-11-10T06:26:35.837Z,99782.73
2018-11-10T06:29:05.584Z,99782.38
2018-11-10T06:31:35.045Z,99788.73
2018-11-10T06:34:07.211Z,99779.30
2018-11-10T06:36:38.822Z,99786.01
2018-11-10T06:39:10.588Z,99785.64
2018-11-10T06:41:40.482Z,99783.57
2018-11-10T06:44:10.461Z,99787.28
2018-11-10T06:46:40.714Z,99788.00
2018-11-10T06:49:11.230Z,99789.11
2018-11-10T06:51:41.534Z,99795.52
2018-11-10T06:54:12.714Z,99804.77
2018-11-10T06:56:42.118Z,99799.22
2018-11-10T06:59:11.789Z,99806.09
2018-11-10T07:01:41.223Z,99809.44
2018-11-10T07:04:10.823Z,99809.04
2018-11-10T07:06:41.027Z,99807.91
2018-11-10T07:09:12.085Z,99807.41
2018-11-10T07:11:42.289Z,99820.16
2018-11-10T07:14:11.800Z,99818.48
2018-11-10T07:16:41.489Z,99826.98
2018-11-10T07:19:10.993Z,99824.70
2018-11-10T07:21:41.228Z,99838.41
2018-11-10T07:24:11.650Z,99830.58
2018-11-10T07:26:40.925Z,99834.15
2018-11-10T07:29:13.318Z,99836.80
2018-11-10T07:31:42.786Z,99837.75
2018-11-10T07:34:12.261Z,99836.98
2018-11-10T07:36:41.638Z,99834.23
2018-11-10T07:39:13.305Z,99833.83
2018-11-10T07:41:42.783Z,99831.98
2018-11-10T07:44:14.898Z,99827.66
2018-11-10T07:46:44.503Z,99832.55
2018-11-10T07:49:16.698Z,99835.95
2018-11-10T07:51:46.335Z,99838.36
2018-11-10T07:54:17.586Z,99833.75
2018-11-10T07:56:47.118Z,99834.61
2018-11-10T07:59:16.561Z,99833.23
2018-11-10T08:01:46.025Z,99835.22
2018-11-10T08:04:17.043Z,99839.58
2018-11-10T08:06:46.405Z,99836.19
2018-11-10T08:09:15.971Z,99836.94
2018-11-10T08:11:45.304Z,99844.35
2018-11-10T08:14:15.186Z,99847.90
2018-11-10T08:16:46.421Z,99847.75
2018-11-10T08:19:17.723Z,99844.03
2018-11-10T08:21:47.143Z,99850.08
2018-11-10T08:24:16.689Z,99850.13
2018-11-10T08:26:46.674Z,99839.75
2018-11-10T08:29:18.612Z,99840.76
2018-11-10T08:31:48.150Z,99842.91
2018-11-10T08:34:18.376Z,99851.84
2018-11-10T08:36:47.732Z,99857.33
2018-11-10T08:39:18.464Z,99855.58
2018-11-10T08:41:47.905Z,99850.53
2018-11-10T08:44:18.110Z,99855.47
2018-11-10T08:46:47.512Z,99849.50
2018-11-10T08:49:17.863Z,99858.44
2018-11-10T08:51:47.372Z,99861.52
2018-11-10T08:54:16.990Z,99864.05
2018-11-10T08:56:46.598Z,99866.70
2018-11-10T08:59:17.139Z,99869.49
2018-11-10T09:01:46.701Z,99866.91
2018-11-10T09:04:18.051Z,99874.31
2018-11-10T09:06:47.807Z,99878.83
2018-11-10T09:09:18.396Z,99867.20
2018-11-10T09:11:48.108Z,99877.61
2018-11-10T09:14:18.109Z,99874.31
2018-11-10T09:16:47.511Z,99880.36
2018-11-10T09:19:16.946Z,99880.50
2018-11-10T09:21:46.478Z,99877.28
2018-11-10T09:24:16.742Z,99878.83
2018-11-10T09:26:46.962Z,99873.53
2018-11-10T09:29:16.798Z,99889.30
2018-11-10T09:31:47.173Z,99881.40
2018-11-10T09:34:16.706Z,99879.61
2018-11-10T09:36:46.276Z,99882.50
2018-11-10T09:39:15.925Z,99870.77
2018-11-10T09:41:46.791Z,99872.23
2018-11-10T09:44:16.438Z,99877.42
2018-11-10T09:46:46.703Z,99886.72
2018-11-10T09:49:16.206Z,99884.35
2018-11-10T09:51:45.593Z,99890.00
2018-11-10T09:54:15.041Z,99885.09
2018-11-10T09:56:44.503Z,99886.20
2018-11-10T09:59:14.283Z,99883.34
2018-11-10T10:01:43.852Z,99878.75
2018-11-10T10:04:13.060Z,99882.03
2018-11-10T10:06:42.431Z,99884.47
2018-11-10T10:09:12.437Z,99884.00
2018-11-10T10:11:42.661Z,99874.17
2018-11-10T10:14:11.875Z,99880.22
2018-11-10T10:16:41.204Z,99877.57
2018-11-10T10:19:10.938Z,99877.68
2018-11-10T10:21:40.334Z,99876.83
2018-11-10T10:24:09.764Z,99873.92
2018-11-10T10:26:40.033Z,99875.91
2018-11-10T10:29:09.560Z,99856.05
2018-11-10T10:31:39.815Z,99859.70
2018-11-10T10:34:09.371Z,99862.63
2018-11-10T10:36:38.555Z,99873.27
2018-11-10T10:39:09.065Z,99871.48
2018-11-10T10:41:39.068Z,99864.58
2018-11-10T10:44:09.195Z,99872.37
2018-11-10T10:46:38.554Z,99882.33
2018-11-10T10:49:07.888Z,99881.39
2018-11-10T10:51:37.566Z,99882.56
2018-11-10T10:54:06.855Z,99883.86
2018-11-10T10:56:36.324Z,99880.58
2018-11-10T10:59:05.654Z,99880.69
2018-11-10T11:01:40.336Z,99872.71
2018-11-10T11:04:14.848Z,99874.15
2018-11-10T11:06:44.138Z,99872.60
2018-11-10T11:09:13.593Z,99873.52
2018-11-10T11:11:43.034Z,99870.45
2018-11-10T11:14:12.535Z,99866.34
2018-11-10T11:16:42.039Z,99873.42
2018-11-10T11:19:11.335Z,99866.34
2018-11-10T11:21:40.756Z,99861.84
2018-11-10T11:24:10.143Z,99875.88
2018-11-10T11:26:39.572Z,99863.32
2018-11-10T11:29:09.279Z,99859.67
2018-11-10T11:31:38.964Z,99869.27
2018-11-10T11:34:08.542Z,99862.86
2018-11-10T11:36:38.022Z,99865.09
2018-11-10T11:39:10.105Z,99864.55
2018-11-10T11:41:39.739Z,99870.56
2018-11-10T11:44:09.482Z,99865.73
2018-11-10T11:46:38.693Z,99857.05
2018-11-10T11:49:08.074Z,99856.05
2018-11-10T11:51:40.410Z,99851.36
2018-11-10T11:54:09.813Z,99845.20
2018-11-10T11:56:39.413Z,99848.06
2018-11-10T11:59:08.702Z,99841.34
2018-11-10T12:01:38.173Z,99839.05
2018-11-10T12:04:07.684Z,99838.80
2018-11-10T12:06:37.064Z,99837.20
2018-11-10T12:09:08.920Z,99833.83
2018-11-10T12:11:38.216Z,99836.20
2018-11-10T12:14:07.516Z,99840.91
2018-11-10T12:16:37.022Z,99831.77
2018-11-10T12:19:06.813Z,99836.59
2018-11-10T12:21:36.468Z,99833.55
2018-11-10T12:24:05.954Z,99831.41
2018-11-10T12:26:35.844Z,99829.33
2018-11-10T12:29:05.674Z,99828.11
2018-11-10T12:31:35.351Z,99824.50
2018-11-10T12:34:05.031Z,99820.81
2018-11-10T12:36:34.523Z,99823.57
2018-11-10T12:39:04.657Z,99814.77
2018-11-10T12:41:34.281Z,99810.45
2018-11-10T12:44:04.117Z,99811.27
2018-11-10T12:46:33.524Z,99811.55
2018-11-10T12:49:03.164Z,99812.98
2018-11-10T12:51:32.482Z,99807.27
2018-11-10T12:54:01.806Z,99804.55
2018-11-10T12:56:31.086Z,99802.19
2018-11-10T12:59:00.549Z,99797.14
2018-11-10T13:01:30.546Z,99799.11
2018-11-10T13:04:00.136Z,99794.39
2018-11-10T13:06:29.544Z,99794.34
2018-11-10T13:08:59.462Z,99792.41
2018-11-10T13:11:29.133Z,99796.34
2018-11-10T13:13:58.498Z,99790.19
2018-11-10T13:16:27.788Z,99786.64
2018-11-10T13:18:57.164Z,99777.15
2018-11-10T13:21:26.674Z,99776.93
2018-11-10T13:23:56.034Z,99774.42
2018-11-10T13:26:25.431Z,99774.30
2018-11-10T13:28:54.783Z,99768.55
2018-11-10T13:31:24.363Z,99761.92
2018-11-10T13:33:53.617Z,99764.34
2018-11-10T13:36:23.021Z,99767.22
2018-11-10T13:38:52.482Z,99775.73
2018-11-10T13:41:21.858Z,99771.66
2018-11-10T13:43:52.087Z,99770.44
2018-11-10T13:46:22.280Z,99769.02
2018-11-10T13:48:52.128Z,99762.14
2018-11-10T13:51:22.059Z,99762.89
2018-11-10T13:53:51.684Z,99764.33
2018-11-10T13:56:21.535Z,99760.71
2018-11-10T13:58:51.227Z,99754.67
2018-11-10T14:01:20.758Z,99750.40
2018-11-10T14:03:50.198Z,99751.72
2018-11-10T14:06:19.599Z,99743.39
2018-11-10T14:08:49.621Z,99738.61
2018-11-10T14:11:18.979Z,99730.31
2018-11-10T14:13:48.595Z,99731.53
2018-11-10T14:16:18.112Z,99720.82
2018-11-10T14:18:47.846Z,99718.66
2018-11-10T14:21:17.455Z,99720.38
2018-11-10T14:23:47.226Z,99717.22
2018-11-10T14:26:16.764Z,99711.09
2018-11-10T14:28:47.818Z,99710.98
2018-11-10T14:31:17.695Z,99710.41
2018-11-10T14:33:47.318Z,99715.20
2018-11-10T14:36:16.899Z,99709.91
2018-11-10T14:38:46.354Z,99705.81
2018-11-10T14:41:16.089Z,99698.50
2018-11-10T14:43:45.595Z,99705.13
2018-11-10T14:46:14.957Z,99699.08
2018-11-10T14:48:44.632Z,99707.41
2018-11-10T14:51:14.132Z,99716.81
2018-11-10T14:53:43.511Z,99719.75
2018-11-10T14:56:12.971Z,99720.72
2018-11-10T14:58:42.519Z,99718.78
2018-11-10T15:01:12.314Z,99725.52
2018-11-10T15:03:42.476Z,99719.39
2018-11-10T15:06:16.351Z,99722.05
2018-11-10T15:08:51.989Z,99716.52
2018-11-10T15:11:25.995Z,99712.78
2018-11-10T15:13:59.575Z,99708.92
2018-11-10T15:16:32.702Z,99708.92
2018-11-10T15:19:07.119Z,99716.52
2018-11-10T15:21:40.152Z,99731.55
2018-11-10T15:24:09.970Z,99733.34
2018-11-10T15:26:39.610Z,99729.14
2018-11-10T15:29:09.276Z,99735.30
2018-11-10T15:31:38.753Z,99736.86
2018-11-10T15:34:08.340Z,99730.98
2018-11-10T15:36:37.901Z,99732.94
2018-11-10T15:39:08.917Z,99736.52
2018-11-10T15:41:38.447Z,99738.12
2018-11-10T15:44:07.959Z,99740.25
2018-11-10T15:46:38.229Z,99739.56
2018-11-10T15:49:07.748Z,99739.67
2018-11-10T15:51:37.422Z,99741.00
2018-11-10T15:54:06.927Z,99737.96
2018-11-10T15:56:36.379Z,99737.49
2018-11-10T15:59:06.481Z,99733.87
2018-11-10T16:01:35.939Z,99730.17
2018-11-10T16:04:05.891Z,99736.80
2018-11-10T16:06:35.297Z,99735.58
2018-11-10T16:09:07.806Z,99735.47
2018-11-10T16:11:37.348Z,99737.38
2018-11-10T16:14:06.980Z,99744.16
2018-11-10T16:16:36.436Z,99746.92
2018-11-10T16:19:05.948Z,99746.81
2018-11-10T16:21:35.332Z,99746.31
2018-11-10T16:24:04.894Z,99749.12
2018-11-10T16:26:34.846Z,99758.75
2018-11-10T16:29:04.441Z,99757.43
2018-11-10T16:31:34.066Z,99758.72
2018-11-10T16:34:03.500Z,99748.00
2018-11-10T16:36:33.225Z,99754.55
2018-11-10T16:39:03.413Z,99757.83
2018-11-10T16:41:34.183Z,99757.94
2018-11-10T16:44:04.233Z,99752.91
2018-11-10T16:46:34.189Z,99750.96
2018-11-10T16:49:03.870Z,99754.11
2018-11-10T16:51:33.191Z,99751.58
2018-11-10T16:54:02.681Z,99760.59
2018-11-10T16:56:32.006Z,99760.75
2018-11-10T16:59:01.445Z,99758.09
2018-11-10T17:01:30.753Z,99754.73
2018-11-10T17:04:00.257Z,99759.69
2018-11-10T17:06:29.589Z,99751.14
2018-11-10T17:08:59.075Z,99751.02
2018-11-10T17:11:28.881Z,99757.53
2018-11-10T17:13:58.352Z,99763.55
2018-11-10T17:16:28.522Z,99763.45
2018-11-10T17:18:58.974Z,99765.64
2018-11-10T17:21:28.577Z,99770.33
2018-11-10T17:24:00.193Z,99783.85
2018-11-10T17:26:29.783Z,99779.98
2018-11-10T17:29:02.448Z,99782.28
2018-11-10T17:31:31.799Z,99788.92
2018-11-10T17:34:02.841Z,99796.77
2018-11-10T17:36:33.347Z,99776.39
2018-11-10T17:39:03.385Z,99783.88
2018-11-10T17:41:33.707Z,99779.66
2018-11-10T17:44:04.920Z,99775.43
2018-11-10T17:46:34.516Z,99784.36
2018-11-10T17:49:04.904Z,99785.43
2018-11-10T17:51:35.272Z,99780.00
2018-11-10T17:54:04.775Z,99786.30
2018-11-10T17:56:34.153Z,99782.66
2018-11-10T17:59:04.416Z,99780.75
2018-11-10T18:01:33.754Z,99765.28
2018-11-10T18:04:03.596Z,99774.13
2018-11-10T18:06:32.922Z,99773.27
2018-11-10T18:09:02.918Z,99771.22
2018-11-10T18:11:32.296Z,99770.50
2018-11-10T18:14:01.662Z,99773.01
2018-11-10T18:16:31.726Z,99770.73
2018-11-10T18:19:01.358Z,99774.81
2018-11-10T18:21:31.419Z,99780.98
2018-11-10T18:24:00.728Z,99793.90
2018-11-10T18:26:29.972Z,99779.18
2018-11-10T18:28:59.235Z,99788.20
2018-11-10T18:31:28.721Z,99787.23
2018-11-10T18:33:58.118Z,99783.50
2018-11-10T18:36:27.458Z,99792.99
2018-11-10T18:38:56.892Z,99793.97
2018-11-10T18:41:26.458Z,99798.03
2018-11-10T18:43:55.845Z,99799.47
2018-11-10T18:46:25.196Z,99788.86
2018-11-10T18:48:54.645Z,99797.05
2018-11-10T18:51:24.028Z,99805.25
2018-11-10T18:53:53.556Z,99804.34
2018-11-10T18:56:22.963Z,99801.80
2018-11-10T18:58:52.474Z,99806.25
2018-11-10T19:01:22.228Z,99803.24
2018-11-10T19:03:51.497Z,99807.17
2018-11-10T19:06:21.001Z,99810.76
2018-11-10T19:08:50.506Z,99806.97
2018-11-10T19:11:19.887Z,99810.20
2018-11-10T19:13:49.342Z,99804.88
2018-11-10T19:16:18.655Z,99806.73
2018-11-10T19:18:48.115Z,99800.33
2018-11-10T19:21:17.628Z,99807.64
2018-11-10T19:23:47.003Z,99808.83
2018-11-10T19:26:16.418Z,99805.08
2018-11-10T19:28:46.554Z,99802.79
2018-11-10T19:31:17.136Z,99798.41
2018-11-10T19:33:46.731Z,99792.97
2018-11-10T19:36:22.546Z,99788.02
2018-11-10T19:38:53.260Z,99797.23
2018-11-10T19:41:23.055Z,99794.11
2018-11-10T19:43:52.564Z,99786.28
2018-11-10T19:46:22.037Z,99782.44
2018-11-10T19:48:51.433Z,99780.13
2018-11-10T19:51:21.022Z,99789.03
2018-11-10T19:53:50.531Z,99788.56
2018-11-10T19:56:20.119Z,99794.80
2018-11-10T19:58:49.501Z,99801.17
2018-11-10T20:01:18.894Z,99804.28
2018-11-10T20:03:48.312Z,99809.01
2018-11-10T20:06:18.312Z,99811.77
2018-11-10T20:08:47.764Z,99817.06
2018-11-10T20:11:17.149Z,99825.75
2018-11-10T20:13:46.697Z,99829.44
2018-11-10T20:16:18.354Z,99843.14
2018-11-10T20:18:48.772Z,99849.69
2018-11-10T20:21:18.373Z,99856.71
2018-11-10T20:23:48.135Z,99860.30
2018-11-10T20:26:17.820Z,99862.08
2018-11-10T20:28:47.348Z,99859.65
2018-11-10T20:31:17.178Z,99865.52
2018-11-10T20:33:46.684Z,99863.84
2018-11-10T20:36:16.068Z,99861.02
2018-11-10T20:38:45.471Z,99865.59
2018-11-10T20:41:14.895Z,99866.05
2018-11-10T20:43:44.374Z,99870.49
2018-11-10T20:46:13.881Z,99862.84
2018-11-10T20:48:43.420Z,99866.63
2018-11-10T20:51:13.569Z,99865.52
2018-11-10T20:53:42.988Z,99861.19
2018-11-10T20:56:13.422Z,99862.52
2018-11-10T20:58:42.754Z,99853.57
2018-11-10T21:01:12.165Z,99856.80
2018-11-10T21:03:41.557Z,99862.09
2018-11-10T21:06:10.829Z,99865.30
2018-11-10T21:08:40.429Z,99866.63
2018-11-10T21:11:10.766Z,99870.80
2018-11-10T21:13:40.134Z,99871.56
2018-11-10T21:16:09.499Z,99879.14
2018-11-10T21:18:38.910Z,99882.50
2018-11-10T21:21:08.432Z,99881.57
2018-11-10T21:23:38.118Z,99873.24
2018-11-10T21:26:07.523Z,99886.68
2018-11-10T21:28:37.118Z,99884.03
2018-11-10T21:31:06.702Z,99882.36
2018-11-10T21:33:36.366Z,99878.03
2018-11-10T21:36:05.644Z,99878.38
2018-11-10T21:38:35.276Z,99875.73
2018-11-10T21:41:06.049Z,99884.14
2018-11-10T21:43:35.374Z,99877.06
2018-11-10T21:46:04.974Z,99883.21
2018-11-10T21:48:34.460Z,99879.24
2018-11-10T21:51:04.056Z,99876.95
2018-11-10T21:53:33.366Z,99884.94
2018-11-10T21:56:03.321Z,99887.69
2018-11-10T21:58:32.865Z,99885.90
2018-11-10T22:01:02.276Z,99889.62
2018-11-10T22:03:31.737Z,99895.52
2018-11-10T22:06:01.323Z,99897.59
2018-11-10T22:08:30.813Z,99905.17
2018-11-10T22:11:00.324Z,99908.18
2018-11-10T22:13:29.952Z,99907.22
2018-11-10T22:15:59.590Z,99912.80
2018-11-10T22:18:29.108Z,99901.00
2018-11-10T22:20:58.658Z,99912.30
2018-11-10T22:23:29.473Z,99908.73
2018-11-10T22:25:58.830Z,99910.63
2018-11-10T22:28:28.438Z,99901.72
2018-11-10T22:30:58.516Z,99903.64
2018-11-10T22:33:28.443Z,99907.61
2018-11-10T22:35:58.792Z,99904.36
2018-11-10T22:38:28.565Z,99909.51
2018-11-10T22:40:58.319Z,99911.58
2018-11-10T22:43:27.736Z,99915.66
2018-11-10T22:45:57.250Z,99912.05
2018-11-10T22:48:26.766Z,99897.48
2018-11-10T22:50:56.337Z,99898.56
2018-11-10T22:53:26.362Z,99898.77
2018-11-10T22:55:55.854Z,99905.39
2018-11-10T22:58:25.415Z,99904.63
2018-11-10T23:01:00.046Z,99903.78
2018-11-10T23:03:29.777Z,99901.73
2018-11-10T23:05:59.595Z,99906.27
2018-11-10T23:08:29.287Z,99911.10
2018-11-10T23:10:58.788Z,99911.10
2018-11-10T23:13:28.331Z,99913.75
2018-11-10T23:15:57.858Z,99910.45
2018-11-10T23:18:27.666Z,99915.34
2018-11-10T23:20:57.207Z,99914.31
2018-11-10T23:23:26.798Z,99908.45
2018-11-10T23:25:56.292Z,99905.31
2018-11-10T23:28:26.056Z,99907.49
2018-11-10T23:30:55.514Z,99905.96
2018-11-10T23:33:25.214Z,99899.45
2018-11-10T23:35:57.061Z,99896.23
2018-11-10T23:38:27.491Z,99900.52
2018-11-10T23:40:57.001Z,99894.08
2018-11-10T23:43:26.496Z,99909.48
2018-11-10T23:45:55.871Z,99905.98
2018-11-10T23:48:25.385Z,99907.41
2018-11-10T23:50:54.846Z,99900.23
2018-11-10T23:53:24.919Z,99900.44
2018-11-10T23:55:54.401Z,99898.66
2018-11-10T23:58:24.168Z,99882.28
